createdAt,value
2017-11-28T05:00:30.101Z,4.9
2017-11-28T05:00:55.592Z,4.93
2017-11-28T05:01:21.049Z,4.93
2017-11-28T05:01:46.555Z,4.89
2017-11-28T05:02:12.032Z,4.99
2017-11-28T05:02:37.514Z,4.87
2017-11-28T05:03:03.007Z,4.94
2017-11-28T05:03:28.507Z,4.8
2017-11-28T05:03:54.021Z,4.89
2017-11-28T05:04:19.514Z,4.87
2017-11-28T05:04:44.960Z,4.9
2017-11-28T05:05:10.425Z,4.86
2017-11-28T05:05:35.939Z,4.84
2017-11-28T05:06:01.427Z,4.77
2017-11-28T05:06:26.972Z,4.84
2017-11-28T05:06:52.461Z,4.77
2017-11-28T05:07:17.927Z,4.84
2017-11-28T05:07:43.415Z,4.77
2017-11-28T05:08:08.854Z,4.73
2017-11-28T05:08:34.378Z,4.73
2017-11-28T05:08:59.853Z,4.73
2017-11-28T05:09:25.363Z,4.74
2017-11-28T05:09:50.842Z,4.74
2017-11-28T05:10:16.313Z,4.71
2017-11-28T05:10:41.788Z,4.75
2017-11-28T05:11:07.285Z,4.75
2017-11-28T05:11:32.788Z,4.74
2017-11-28T05:11:58.273Z,4.75
2017-11-28T05:12:23.716Z,4.74
2017-11-28T05:12:49.176Z,4.6
2017-11-28T05:13:14.787Z,4.59
2017-11-28T05:13:40.188Z,4.55
2017-11-28T05:14:05.705Z,4.71
2017-11-28T05:14:31.249Z,4.68
2017-11-28T05:14:56.708Z,4.63
2017-11-28T05:15:22.162Z,4.62
2017-11-28T05:15:47.648Z,4.67
2017-11-28T05:16:13.134Z,4.68
2017-11-28T05:16:38.637Z,4.62
2017-11-28T05:17:04.138Z,4.58
2017-11-28T05:17:29.599Z,4.66
2017-11-28T05:17:55.092Z,4.66
2017-11-28T05:18:20.572Z,4.62
2017-11-28T05:18:46.036Z,4.6
2017-11-28T05:19:11.486Z,4.6
2017-11-28T05:19:36.950Z,4.63
2017-11-28T05:20:02.469Z,4.62
2017-11-28T05:20:27.956Z,4.68
2017-11-28T05:20:53.436Z,4.59
2017-11-28T05:21:18.919Z,4.75
2017-11-28T05:21:44.423Z,4.67
2017-11-28T05:22:09.928Z,4.63
2017-11-28T05:22:35.413Z,4.7
2017-11-28T05:23:00.935Z,4.63
2017-11-28T05:23:26.489Z,4.62
2017-11-28T05:23:51.977Z,4.5
2017-11-28T05:24:17.459Z,4.67
2017-11-28T05:24:42.978Z,4.66
2017-11-28T05:25:08.483Z,4.59
2017-11-28T05:25:33.979Z,4.63
2017-11-28T05:25:59.450Z,4.6
2017-11-28T05:26:24.927Z,4.58
2017-11-28T05:26:50.422Z,4.56
2017-11-28T05:27:16.166Z,4.58
2017-11-28T05:27:41.561Z,4.53
2017-11-28T05:28:07.046Z,4.58
2017-11-28T05:28:32.540Z,4.56
2017-11-28T05:28:58.118Z,4.59
2017-11-28T05:29:23.761Z,4.55
2017-11-28T05:29:49.236Z,4.56
2017-11-28T05:30:14.742Z,4.59
2017-11-28T05:30:40.216Z,4.58
2017-11-28T05:31:05.694Z,4.5
2017-11-28T05:31:31.201Z,4.58
2017-11-28T05:31:56.679Z,4.48
2017-11-28T05:32:22.254Z,4.56
2017-11-28T05:32:47.710Z,4.53
2017-11-28T05:33:13.242Z,4.53
2017-11-28T05:33:38.715Z,4.53
2017-11-28T05:34:04.196Z,4.45
2017-11-28T05:34:29.696Z,4.45
2017-11-28T05:34:55.194Z,4.59
2017-11-28T05:35:20.690Z,4.53
2017-11-28T05:35:46.161Z,4.49
2017-11-28T05:36:11.651Z,4.45
2017-11-28T05:36:37.151Z,4.55
2017-11-28T05:37:45.879Z,4.5
2017-11-28T05:38:11.355Z,4.5
2017-11-28T05:38:36.833Z,4.52
2017-11-28T05:39:02.314Z,4.45
2017-11-28T05:39:27.799Z,4.48
2017-11-28T05:39:53.378Z,4.53
2017-11-28T05:40:18.856Z,4.5
2017-11-28T05:40:44.339Z,4.5
2017-11-28T05:41:09.900Z,4.53
2017-11-28T05:41:35.402Z,4.49
2017-11-28T05:42:00.941Z,4.52
2017-11-28T05:42:26.420Z,4.49
2017-11-28T05:42:51.915Z,4.49
2017-11-28T05:43:17.413Z,4.49
2017-11-28T05:43:42.937Z,4.52
2017-11-28T05:44:08.432Z,4.5
2017-11-28T05:44:33.872Z,4.45
2017-11-28T05:44:59.655Z,4.5
2017-11-28T05:45:25.150Z,4.45
2017-11-28T05:45:50.635Z,4.49
2017-11-28T05:46:16.122Z,4.53
2017-11-28T05:46:41.617Z,4.55
2017-11-28T05:47:07.103Z,4.56
2017-11-28T05:48:10.757Z,4.53
2017-11-28T05:48:36.242Z,4.49
2017-11-28T05:49:01.722Z,4.45
2017-11-28T05:49:27.195Z,4.56
2017-11-28T05:49:52.685Z,4.52
2017-11-28T05:50:18.178Z,4.55
2017-11-28T05:50:43.669Z,4.55
2017-11-28T05:51:09.171Z,4.53
2017-11-28T05:51:34.652Z,4.56
2017-11-28T05:52:00.131Z,4.59
2017-11-28T05:52:25.637Z,4.55
2017-11-28T05:52:51.150Z,4.56
2017-11-28T05:53:16.637Z,4.55
2017-11-28T05:53:42.138Z,4.59
2017-11-28T05:54:07.652Z,4.58
2017-11-28T05:54:33.160Z,4.59
2017-11-28T05:54:58.623Z,4.67
2017-11-28T05:55:24.089Z,4.7
2017-11-28T05:55:49.586Z,4.6
2017-11-28T05:56:15.068Z,4.67
2017-11-28T05:56:40.546Z,4.62
2017-11-28T05:57:05.979Z,4.68
2017-11-28T05:57:31.473Z,4.58
2017-11-28T05:57:56.945Z,4.63
2017-11-28T05:58:22.471Z,4.6
2017-11-28T05:58:47.934Z,4.7
2017-11-28T05:59:13.405Z,4.73
2017-11-28T05:59:38.889Z,4.75
2017-11-28T06:00:04.336Z,4.77
2017-11-28T06:00:29.904Z,4.75
2017-11-28T06:00:55.419Z,4.8
2017-11-28T06:01:20.879Z,4.66
2017-11-28T06:01:46.344Z,4.77
2017-11-28T06:02:11.787Z,4.78
2017-11-28T06:02:37.241Z,4.68
2017-11-28T06:03:02.744Z,4.86
2017-11-28T06:03:28.218Z,4.74
2017-11-28T06:03:53.724Z,4.75
2017-11-28T06:04:19.180Z,4.74
2017-11-28T06:04:44.654Z,4.77
2017-11-28T06:05:10.170Z,4.78
2017-11-28T06:05:35.661Z,4.71
2017-11-28T06:06:01.141Z,4.78
2017-11-28T06:06:26.611Z,4.8
2017-11-28T06:06:52.159Z,4.84
2017-11-28T06:07:17.614Z,4.68
2017-11-28T06:07:43.052Z,4.8
2017-11-28T06:08:08.525Z,4.7
2017-11-28T06:08:33.993Z,4.68
2017-11-28T06:08:59.560Z,4.78
2017-11-28T06:09:24.994Z,4.77
2017-11-28T06:09:50.475Z,4.78
2017-11-28T06:10:15.963Z,4.73
2017-11-28T06:10:41.442Z,4.66
2017-11-28T06:11:06.992Z,4.7
2017-11-28T06:11:32.524Z,4.67
2017-11-28T06:11:58.028Z,4.59
2017-11-28T06:12:23.516Z,4.7
2017-11-28T06:12:48.975Z,4.66
2017-11-28T06:13:14.499Z,4.62
2017-11-28T06:13:39.988Z,4.59
2017-11-28T06:14:05.477Z,4.67
2017-11-28T06:14:30.952Z,4.6
2017-11-28T06:14:56.465Z,4.62
2017-11-28T06:15:21.915Z,4.6
2017-11-28T06:15:47.399Z,4.62
2017-11-28T06:16:12.883Z,4.71
2017-11-28T06:16:38.387Z,4.68
2017-11-28T06:17:03.869Z,4.66
2017-11-28T06:17:29.361Z,4.6
2017-11-28T06:17:54.854Z,4.66
2017-11-28T06:18:20.350Z,4.59
2017-11-28T06:18:45.857Z,4.6
2017-11-28T06:19:11.349Z,4.63
2017-11-28T06:19:36.814Z,4.62
2017-11-28T06:20:02.344Z,4.59
2017-11-28T06:20:27.812Z,4.62
2017-11-28T06:20:53.328Z,4.55
2017-11-28T06:21:18.844Z,4.58
2017-11-28T06:21:44.317Z,4.63
2017-11-28T06:22:09.817Z,4.58
2017-11-28T06:22:35.283Z,4.62
2017-11-28T06:23:00.816Z,4.58
2017-11-28T06:23:26.308Z,4.58
2017-11-28T06:23:51.804Z,4.56
2017-11-28T06:24:17.300Z,4.58
2017-11-28T06:24:42.800Z,4.56
2017-11-28T06:25:08.297Z,4.55
2017-11-28T06:25:33.802Z,4.56
2017-11-28T06:25:59.298Z,4.58
2017-11-28T06:26:24.759Z,4.53
2017-11-28T06:26:50.216Z,4.53
2017-11-28T06:27:15.728Z,4.58
2017-11-28T06:27:41.200Z,4.55
2017-11-28T06:28:06.737Z,4.59
2017-11-28T06:28:32.233Z,4.59
2017-11-28T06:28:57.726Z,4.52
2017-11-28T06:29:23.251Z,4.56
2017-11-28T06:29:48.725Z,4.48
2017-11-28T06:30:14.221Z,4.53
2017-11-28T06:30:39.705Z,4.59
2017-11-28T06:31:05.165Z,4.53
2017-11-28T06:31:30.607Z,4.59
2017-11-28T06:31:56.115Z,4.58
2017-11-28T06:32:21.578Z,4.55
2017-11-28T06:32:47.052Z,4.52
2017-11-28T06:33:12.537Z,4.58
2017-11-28T06:33:37.970Z,4.55
2017-11-28T06:34:31.425Z,4.62
2017-11-28T06:34:56.913Z,4.52
2017-11-28T06:35:22.387Z,4.59
2017-11-28T06:35:47.866Z,4.58
2017-11-28T06:36:13.338Z,4.63
2017-11-28T06:37:11.813Z,4.68
2017-11-28T06:37:37.293Z,4.7
2017-11-28T06:38:02.776Z,4.55
2017-11-28T06:38:28.246Z,4.58
2017-11-28T06:38:53.704Z,4.66
2017-11-28T06:39:19.196Z,4.59
2017-11-28T06:39:44.710Z,4.74
2017-11-28T06:40:10.194Z,4.67
2017-11-28T06:40:35.693Z,4.58
2017-11-28T06:41:01.190Z,4.59
2017-11-28T06:41:26.671Z,4.66
2017-11-28T06:41:52.148Z,4.63
2017-11-28T06:42:17.636Z,4.63
2017-11-28T06:42:43.140Z,4.67
2017-11-28T06:43:08.583Z,4.62
2017-11-28T06:43:34.062Z,4.67
2017-11-28T06:43:59.540Z,4.58
2017-11-28T06:44:25.015Z,4.62
2017-11-28T06:44:50.478Z,4.66
2017-11-28T06:45:15.960Z,4.71
2017-11-28T06:45:41.498Z,4.62
2017-11-28T06:46:06.949Z,4.62
2017-11-28T06:46:32.442Z,4.62
2017-11-28T06:46:57.895Z,4.62
2017-11-28T06:47:23.367Z,4.63
2017-11-28T06:47:48.855Z,4.63
2017-11-28T06:48:14.333Z,4.6
2017-11-28T06:48:39.820Z,4.59
2017-11-28T06:49:05.275Z,4.66
2017-11-28T06:50:13.968Z,4.6
2017-11-28T06:50:39.448Z,4.62
2017-11-28T06:51:04.980Z,4.62
2017-11-28T06:51:30.447Z,4.56
2017-11-28T06:51:55.878Z,4.63
2017-11-28T06:52:21.356Z,4.55
2017-11-28T06:52:46.851Z,4.53
2017-11-28T06:53:12.320Z,4.62
2017-11-28T06:53:37.815Z,4.66
2017-11-28T06:54:03.293Z,4.56
2017-11-28T06:54:28.730Z,4.56
2017-11-28T06:54:54.217Z,4.55
2017-11-28T06:55:19.711Z,4.53
2017-11-28T06:55:45.197Z,4.56
2017-11-28T06:56:10.673Z,4.6
2017-11-28T06:56:36.167Z,4.66
2017-11-28T06:57:01.652Z,4.58
2017-11-28T06:57:27.145Z,4.59
2017-11-28T06:57:52.645Z,4.67
2017-11-28T06:58:18.132Z,4.63
2017-11-28T06:58:43.633Z,4.53
2017-11-28T06:59:09.072Z,4.67
2017-11-28T06:59:34.532Z,4.59
2017-11-28T07:00:00.050Z,4.6
2017-11-28T07:00:25.523Z,4.56
2017-11-28T07:01:29.135Z,4.66
2017-11-28T07:01:54.646Z,4.58
2017-11-28T07:02:20.124Z,4.71
2017-11-28T07:02:45.619Z,4.73
2017-11-28T07:03:11.085Z,4.7
2017-11-28T07:04:04.515Z,4.7
2017-11-28T07:04:30.014Z,4.77
2017-11-28T07:04:55.500Z,4.75
2017-11-28T07:05:20.977Z,4.82
2017-11-28T07:05:46.454Z,4.84
2017-11-28T07:06:11.922Z,4.74
2017-11-28T07:06:37.415Z,4.84
2017-11-28T07:07:02.918Z,4.84
2017-11-28T07:07:28.383Z,4.82
2017-11-28T07:07:53.857Z,4.9
2017-11-28T07:08:19.336Z,4.87
2017-11-28T07:08:44.827Z,4.77
2017-11-28T07:09:10.302Z,4.8
2017-11-28T07:09:35.796Z,4.9
2017-11-28T07:10:01.330Z,4.92
2017-11-28T07:10:26.784Z,4.89
2017-11-28T07:10:52.263Z,4.9
2017-11-28T07:11:17.815Z,4.96
2017-11-28T07:11:43.351Z,4.86
2017-11-28T07:12:08.757Z,4.86
2017-11-28T07:12:34.247Z,4.87
2017-11-28T07:12:59.710Z,4.96
2017-11-28T07:13:25.225Z,4.86
2017-11-28T07:13:50.736Z,4.93
2017-11-28T07:14:16.171Z,4.94
2017-11-28T07:14:41.665Z,4.93
2017-11-28T07:15:07.156Z,4.84
2017-11-28T07:15:32.668Z,4.93
2017-11-28T07:15:58.129Z,4.92
2017-11-28T07:16:23.644Z,4.93
2017-11-28T07:16:49.125Z,4.96
2017-11-28T07:17:14.600Z,4.89
2017-11-28T07:17:40.143Z,4.9
2017-11-28T07:18:05.624Z,4.93
2017-11-28T07:18:31.125Z,4.93
2017-11-28T07:18:56.639Z,4.93
2017-11-28T07:19:22.125Z,4.92
2017-11-28T07:19:47.596Z,4.89
2017-11-28T07:20:13.073Z,4.8
2017-11-28T07:20:38.586Z,4.92
2017-11-28T07:21:04.063Z,4.87
2017-11-28T07:21:29.601Z,4.84
2017-11-28T07:21:55.068Z,4.84
2017-11-28T07:22:20.532Z,4.8
2017-11-28T07:22:46.017Z,4.8
2017-11-28T07:23:11.482Z,4.82
2017-11-28T07:23:36.989Z,4.84
2017-11-28T07:24:02.496Z,4.84
2017-11-28T07:24:27.964Z,4.74
2017-11-28T07:24:53.461Z,4.74
2017-11-28T07:25:18.905Z,4.87
2017-11-28T07:25:44.384Z,4.78
2017-11-28T07:26:09.910Z,4.78
2017-11-28T07:26:35.410Z,4.73
2017-11-28T07:27:00.958Z,4.8
2017-11-28T07:27:26.427Z,4.75
2017-11-28T07:27:51.916Z,4.7
2017-11-28T07:28:17.389Z,4.68
2017-11-28T07:28:42.858Z,4.77
2017-11-28T07:29:08.354Z,4.77
2017-11-28T07:29:33.831Z,4.73
2017-11-28T07:29:59.334Z,4.74
2017-11-28T07:30:24.809Z,4.78
2017-11-28T07:30:50.272Z,4.75
2017-11-28T07:31:15.811Z,4.77
2017-11-28T07:31:41.284Z,4.71
2017-11-28T07:32:06.750Z,4.6
2017-11-28T07:32:32.251Z,4.62
2017-11-28T07:32:57.757Z,4.73
2017-11-28T07:33:23.224Z,4.66
2017-11-28T07:33:48.711Z,4.62
2017-11-28T07:34:14.176Z,4.7
2017-11-28T07:34:39.687Z,4.67
2017-11-28T07:35:05.160Z,4.62
2017-11-28T07:35:30.633Z,4.6
2017-11-28T07:35:56.119Z,4.6
2017-11-28T07:36:21.600Z,4.6
2017-11-28T07:36:47.073Z,4.6
2017-11-28T07:37:12.557Z,4.58
2017-11-28T07:37:38.042Z,4.7
2017-11-28T07:38:03.558Z,4.62
2017-11-28T07:38:29.053Z,4.7
2017-11-28T07:38:54.513Z,4.68
2017-11-28T07:39:19.978Z,4.53
2017-11-28T07:39:45.426Z,4.6
2017-11-28T07:40:10.881Z,4.63
2017-11-28T07:40:36.392Z,4.63
2017-11-28T07:41:01.867Z,4.58
2017-11-28T07:41:27.416Z,4.59
2017-11-28T07:41:52.869Z,4.62
2017-11-28T07:42:18.334Z,4.62
2017-11-28T07:42:43.840Z,4.66
2017-11-28T07:43:09.316Z,4.63
2017-11-28T07:43:34.790Z,4.67
2017-11-28T07:44:00.279Z,4.67
2017-11-28T07:44:25.754Z,4.53
2017-11-28T07:44:51.241Z,4.7
2017-11-28T07:45:16.726Z,4.63
2017-11-28T07:45:42.238Z,4.63
2017-11-28T07:46:07.736Z,4.73
2017-11-28T07:46:33.239Z,4.7
2017-11-28T07:46:58.719Z,4.68
2017-11-28T07:47:24.187Z,4.68
2017-11-28T07:47:49.693Z,4.73
2017-11-28T07:48:15.173Z,4.66
2017-11-28T07:48:40.650Z,4.71
2017-11-28T07:49:06.151Z,4.59
2017-11-28T07:49:31.647Z,4.68
2017-11-28T07:49:57.130Z,4.67
2017-11-28T07:50:22.634Z,4.59
2017-11-28T07:50:48.098Z,4.68
2017-11-28T07:51:13.604Z,4.6
2017-11-28T07:51:39.110Z,4.66
2017-11-28T07:52:04.586Z,4.6
2017-11-28T07:52:30.087Z,4.67
2017-11-28T07:52:55.540Z,4.62
2017-11-28T07:53:21.049Z,4.59
2017-11-28T07:53:46.507Z,4.58
2017-11-28T07:54:12.005Z,4.6
2017-11-28T07:54:37.504Z,4.62
2017-11-28T07:55:02.962Z,4.74
2017-11-28T07:55:28.393Z,4.66
2017-11-28T07:55:53.881Z,4.74
2017-11-28T07:56:19.346Z,4.77
2017-11-28T07:56:44.825Z,4.74
2017-11-28T07:57:10.360Z,4.7
2017-11-28T07:57:35.847Z,4.77
2017-11-28T07:58:01.353Z,4.74
2017-11-28T07:58:26.811Z,4.82
2017-11-28T07:58:52.255Z,4.87
2017-11-28T07:59:17.750Z,4.92
2017-11-28T07:59:43.210Z,4.9
2017-11-28T08:00:08.694Z,4.89
2017-11-28T08:01:17.403Z,4.97
2017-11-28T08:01:42.892Z,4.96
2017-11-28T08:02:08.396Z,4.96
2017-11-28T08:02:33.899Z,4.99
2017-11-28T08:02:59.347Z,4.94
2017-11-28T08:03:24.892Z,5.08
2017-11-28T08:03:50.390Z,5.07
2017-11-28T08:04:15.892Z,5.07
2017-11-28T08:04:41.414Z,5
2017-11-28T08:05:06.887Z,5.11
2017-11-28T08:05:32.360Z,5.05
2017-11-28T08:05:57.831Z,5.15
2017-11-28T08:06:23.316Z,5.14
2017-11-28T08:06:48.787Z,5.18
2017-11-28T08:07:14.269Z,5.17
2017-11-28T08:07:39.783Z,5.12
2017-11-28T08:08:05.260Z,5.15
2017-11-28T08:08:30.765Z,5.15
2017-11-28T08:08:56.266Z,5.17
2017-11-28T08:09:21.746Z,5.2
2017-11-28T08:09:47.279Z,5.18
2017-11-28T08:10:12.741Z,5.11
2017-11-28T08:10:38.252Z,5.17
2017-11-28T08:11:03.741Z,5.15
2017-11-28T08:11:29.213Z,5.15
2017-11-28T08:11:54.760Z,5.12
2017-11-28T08:12:20.205Z,5.14
2017-11-28T08:12:45.694Z,5.1
2017-11-28T08:13:11.193Z,5.11
2017-11-28T08:13:36.681Z,5.12
2017-11-28T08:14:02.174Z,5.08
2017-11-28T08:14:27.666Z,5.08
2017-11-28T08:14:53.142Z,5.05
2017-11-28T08:15:18.608Z,5.07
2017-11-28T08:15:44.120Z,5.02
2017-11-28T08:16:09.617Z,4.99
2017-11-28T08:16:35.122Z,5.02
2017-11-28T08:17:00.620Z,4.96
2017-11-28T08:17:26.105Z,4.97
2017-11-28T08:17:51.571Z,4.97
2017-11-28T08:18:17.053Z,4.97
2017-11-28T08:18:42.546Z,4.92
2017-11-28T08:19:08.020Z,4.93
2017-11-28T08:19:33.503Z,4.93
2017-11-28T08:19:59.049Z,4.92
2017-11-28T08:20:24.515Z,4.93
2017-11-28T08:20:49.983Z,4.86
2017-11-28T08:21:15.460Z,4.92
2017-11-28T08:21:40.950Z,4.9
2017-11-28T08:22:06.423Z,4.92
2017-11-28T08:22:31.916Z,4.9
2017-11-28T08:22:57.420Z,4.9
2017-11-28T08:23:22.926Z,4.86
2017-11-28T08:23:48.437Z,4.75
2017-11-28T08:24:13.893Z,4.82
2017-11-28T08:24:39.383Z,4.75
2017-11-28T08:25:04.859Z,4.92
2017-11-28T08:25:30.346Z,4.73
2017-11-28T08:25:55.792Z,4.68
2017-11-28T08:26:21.279Z,4.73
2017-11-28T08:26:46.772Z,4.77
2017-11-28T08:27:12.291Z,4.75
2017-11-28T08:27:37.755Z,4.74
2017-11-28T08:28:03.256Z,4.74
2017-11-28T08:28:28.758Z,4.7
2017-11-28T08:28:54.205Z,4.68
2017-11-28T08:29:19.696Z,4.77
2017-11-28T08:29:45.168Z,4.77
2017-11-28T08:30:10.704Z,4.73
2017-11-28T08:30:36.194Z,4.73
2017-11-28T08:31:01.701Z,4.75
2017-11-28T08:31:27.187Z,4.77
2017-11-28T08:31:52.665Z,4.78
2017-11-28T08:32:18.146Z,4.84
2017-11-28T08:32:43.624Z,4.89
2017-11-28T08:33:09.150Z,4.77
2017-11-28T08:33:34.658Z,4.86
2017-11-28T08:34:00.126Z,4.89
2017-11-28T08:34:25.582Z,4.89
2017-11-28T08:34:51.053Z,4.92
2017-11-28T08:35:16.527Z,4.89
2017-11-28T08:35:42.002Z,4.92
2017-11-28T08:36:07.462Z,4.97
2017-11-28T08:36:32.964Z,4.99
2017-11-28T08:36:58.452Z,5.02
2017-11-28T08:37:23.987Z,4.97
2017-11-28T08:37:49.473Z,5.05
2017-11-28T08:38:14.975Z,5
2017-11-28T08:38:40.436Z,5.08
2017-11-28T08:39:05.916Z,5.1
2017-11-28T08:39:31.415Z,5.07
2017-11-28T08:39:56.908Z,5.08
2017-11-28T08:40:22.375Z,5.1
2017-11-28T08:40:47.864Z,5.14
2017-11-28T08:41:13.367Z,5.08
2017-11-28T08:41:38.823Z,5.1
2017-11-28T08:42:04.457Z,5.02
2017-11-28T08:42:29.942Z,5.08
2017-11-28T08:42:55.434Z,5.05
2017-11-28T08:43:20.925Z,5
2017-11-28T08:43:46.495Z,5.05
2017-11-28T08:44:12.034Z,5.07
2017-11-28T08:44:37.525Z,5.08
2017-11-28T08:45:03.045Z,5.08
2017-11-28T08:45:28.509Z,5.15
2017-11-28T08:45:53.989Z,5.11
2017-11-28T08:46:19.479Z,4.99
2017-11-28T08:46:44.954Z,5.12
2017-11-28T08:47:10.421Z,5.08
2017-11-28T08:47:35.895Z,5.08
2017-11-28T08:48:01.385Z,5.04
2017-11-28T08:48:26.870Z,5.11
2017-11-28T08:48:52.337Z,5.11
2017-11-28T08:49:17.811Z,5.08
2017-11-28T08:49:43.287Z,5.07
2017-11-28T08:50:08.767Z,5.07
2017-11-28T08:50:34.250Z,5.07
2017-11-28T08:50:59.671Z,5.1
2017-11-28T08:51:25.198Z,4.99
2017-11-28T08:51:50.660Z,5.04
2017-11-28T08:52:16.129Z,4.94
2017-11-28T08:52:41.626Z,4.99
2017-11-28T08:53:07.103Z,4.97
2017-11-28T08:53:32.648Z,4.94
2017-11-28T08:53:58.094Z,4.99
2017-11-28T08:54:23.603Z,4.9
2017-11-28T08:54:49.048Z,4.97
2017-11-28T08:55:14.596Z,4.97
2017-11-28T08:55:40.031Z,4.94
2017-11-28T08:56:05.512Z,4.94
2017-11-28T08:56:30.997Z,5.04
2017-11-28T08:56:56.472Z,4.97
2017-11-28T08:57:21.926Z,4.94
2017-11-28T08:57:47.420Z,4.94
2017-11-28T08:58:12.927Z,4.97
2017-11-28T08:58:38.378Z,4.96
2017-11-28T08:59:03.893Z,5
2017-11-28T08:59:29.376Z,4.97
2017-11-28T08:59:54.874Z,4.94
2017-11-28T09:00:20.311Z,4.97
2017-11-28T09:00:45.802Z,4.96
2017-11-28T09:01:11.274Z,4.99
2017-11-28T09:01:36.807Z,5.04
2017-11-28T09:02:02.275Z,4.93
2017-11-28T09:02:27.783Z,4.99
2017-11-28T09:02:53.235Z,5
2017-11-28T09:03:18.745Z,4.96
2017-11-28T09:03:44.283Z,4.94
2017-11-28T09:04:09.750Z,4.99
2017-11-28T09:04:35.297Z,4.97
2017-11-28T09:05:00.732Z,4.97
2017-11-28T09:05:26.195Z,4.96
2017-11-28T09:05:51.686Z,4.97
2017-11-28T09:06:17.184Z,4.97
2017-11-28T09:06:42.672Z,4.99
2017-11-28T09:07:08.136Z,4.96
2017-11-28T09:07:33.621Z,4.97
2017-11-28T09:07:59.119Z,4.96
2017-11-28T09:08:24.558Z,4.96
2017-11-28T09:08:50.145Z,4.97
2017-11-28T09:09:15.567Z,4.93
2017-11-28T09:09:41.103Z,4.96
2017-11-28T09:10:06.538Z,5
2017-11-28T09:10:32.054Z,4.99
2017-11-28T09:10:57.584Z,4.94
2017-11-28T09:11:23.098Z,4.92
2017-11-28T09:11:48.514Z,5.02
2017-11-28T09:12:13.993Z,4.94
2017-11-28T09:12:39.449Z,5
2017-11-28T09:13:04.941Z,4.93
2017-11-28T09:13:30.468Z,4.94
2017-11-28T09:13:55.994Z,4.96
2017-11-28T09:14:21.484Z,4.96
2017-11-28T09:14:46.963Z,4.97
2017-11-28T09:15:12.460Z,5.02
2017-11-28T09:15:37.955Z,5.04
2017-11-28T09:16:03.416Z,5.04
2017-11-28T09:16:28.915Z,5.02
2017-11-28T09:16:54.426Z,5.04
2017-11-28T09:17:19.918Z,5.02
2017-11-28T09:17:45.404Z,5.05
2017-11-28T09:18:10.926Z,5.07
2017-11-28T09:18:36.460Z,5.04
2017-11-28T09:19:01.915Z,5
2017-11-28T09:19:27.476Z,5.04
2017-11-28T09:19:52.910Z,5.08
2017-11-28T09:20:18.432Z,5.08
2017-11-28T09:20:43.913Z,5.08
2017-11-28T09:21:09.435Z,5.05
2017-11-28T09:21:34.843Z,5.14
2017-11-28T09:22:00.373Z,5.14
2017-11-28T09:22:25.912Z,5.2
2017-11-28T09:22:51.380Z,5.15
2017-11-28T09:23:16.853Z,5.14
2017-11-28T09:23:42.337Z,5.25
2017-11-28T09:24:07.831Z,5.25
2017-11-28T09:24:33.278Z,5.25
2017-11-28T09:24:58.763Z,5.38
2017-11-28T09:25:24.215Z,5.33
2017-11-28T09:25:49.709Z,5.41
2017-11-28T09:26:15.197Z,5.41
2017-11-28T09:26:40.701Z,5.46
2017-11-28T09:27:06.194Z,5.51
2017-11-28T09:27:31.701Z,5.56
2017-11-28T09:27:57.190Z,5.62
2017-11-28T09:28:22.693Z,5.57
2017-11-28T09:28:48.161Z,5.61
2017-11-28T09:29:13.705Z,5.64
2017-11-28T09:29:39.146Z,5.69
2017-11-28T09:30:04.626Z,5.68
2017-11-28T09:30:30.118Z,5.72
2017-11-28T09:30:55.592Z,5.79
2017-11-28T09:31:21.110Z,5.8
2017-11-28T09:31:46.571Z,5.83
2017-11-28T09:32:12.082Z,5.83
2017-11-28T09:32:37.523Z,5.87
2017-11-28T09:33:03.006Z,5.91
2017-11-28T09:33:28.493Z,5.91
2017-11-28T09:33:53.964Z,5.91
2017-11-28T09:34:19.447Z,6.01
2017-11-28T09:34:44.931Z,5.98
2017-11-28T09:35:10.378Z,5.99
2017-11-28T09:35:35.873Z,5.94
2017-11-28T09:36:01.398Z,6.01
2017-11-28T09:36:26.852Z,6.05
2017-11-28T09:36:52.343Z,6.04
2017-11-28T09:37:17.820Z,6.02
2017-11-28T09:37:43.258Z,5.98
2017-11-28T09:38:08.750Z,6.04
2017-11-28T09:38:34.241Z,6.02
2017-11-28T09:38:59.718Z,6.05
2017-11-28T09:39:25.226Z,6.04
2017-11-28T09:39:50.646Z,5.99
2017-11-28T09:40:16.200Z,6.01
2017-11-28T09:40:41.731Z,5.98
2017-11-28T09:41:07.282Z,6.04
2017-11-28T09:41:32.739Z,5.98
2017-11-28T09:41:58.286Z,6.05
2017-11-28T09:42:23.731Z,6.02
2017-11-28T09:42:49.253Z,5.99
2017-11-28T09:43:14.734Z,5.99
2017-11-28T09:43:40.255Z,6.02
2017-11-28T09:44:05.685Z,6.04
2017-11-28T09:44:31.158Z,6.01
2017-11-28T09:44:56.686Z,5.98
2017-11-28T09:45:22.192Z,6.08
2017-11-28T09:45:47.700Z,6.02
2017-11-28T09:46:13.200Z,6.02
2017-11-28T09:46:38.666Z,6.04
2017-11-28T09:47:04.130Z,6.05
2017-11-28T09:47:29.614Z,6.02
2017-11-28T09:47:55.073Z,5.99
2017-11-28T09:48:20.636Z,6.2
2017-11-28T09:48:46.027Z,6.12
2017-11-28T09:49:11.603Z,6.12
2017-11-28T09:49:36.979Z,6.16
2017-11-28T09:50:02.559Z,6.14
2017-11-28T09:50:27.981Z,6.22
2017-11-28T09:50:53.457Z,6.14
2017-11-28T09:51:18.996Z,6.11
2017-11-28T09:51:44.435Z,6.2
2017-11-28T09:52:09.951Z,6.22
2017-11-28T09:52:35.458Z,6.2
2017-11-28T09:53:00.907Z,6.3
2017-11-28T09:53:26.414Z,6.3
2017-11-28T09:53:51.922Z,6.19
2017-11-28T09:54:17.379Z,6.19
2017-11-28T09:54:43.240Z,6.17
2017-11-28T09:55:08.645Z,6.19
2017-11-28T09:55:34.098Z,6.24
2017-11-28T09:55:59.595Z,6.19
2017-11-28T09:56:25.031Z,6.2
2017-11-28T09:56:50.515Z,6.19
2017-11-28T09:57:16.010Z,6.17
2017-11-28T09:57:41.503Z,6.19
2017-11-28T09:58:06.965Z,6.24
2017-11-28T09:58:32.431Z,6.19
2017-11-28T09:58:57.903Z,6.19
2017-11-28T09:59:23.393Z,6.19
2017-11-28T09:59:48.845Z,6.16
2017-11-28T10:00:14.362Z,6.19
2017-11-28T10:00:39.831Z,6.24
2017-11-28T10:01:05.327Z,6.17
2017-11-28T10:01:30.832Z,6.17
2017-11-28T10:01:56.304Z,6.24
2017-11-28T10:02:21.805Z,6.2
2017-11-28T10:02:47.316Z,6.22
2017-11-28T10:03:12.775Z,6.2
2017-11-28T10:03:38.234Z,6.19
2017-11-28T10:04:03.734Z,6.16
2017-11-28T10:04:29.320Z,6.33
2017-11-28T10:04:54.764Z,6.24
2017-11-28T10:05:20.226Z,6.28
2017-11-28T10:05:45.790Z,6.28
2017-11-28T10:06:11.265Z,6.26
2017-11-28T10:06:36.644Z,6.27
2017-11-28T10:07:02.161Z,6.22
2017-11-28T10:07:27.679Z,6.24
2017-11-28T10:07:53.172Z,6.3
2017-11-28T10:08:18.685Z,6.31
2017-11-28T10:08:44.172Z,6.24
2017-11-28T10:09:09.699Z,6.24
2017-11-28T10:09:35.191Z,6.24
2017-11-28T10:10:00.657Z,6.26
2017-11-28T10:10:26.163Z,6.28
2017-11-28T10:10:51.622Z,6.27
2017-11-28T10:11:17.125Z,6.3
2017-11-28T10:11:42.615Z,6.3
2017-11-28T10:12:08.122Z,6.27
2017-11-28T10:12:33.614Z,6.28
2017-11-28T10:12:59.116Z,6.28
2017-11-28T10:13:24.578Z,6.31
2017-11-28T10:13:50.065Z,6.28
2017-11-28T10:14:15.551Z,6.2
2017-11-28T10:14:40.971Z,6.24
2017-11-28T10:15:06.480Z,6.24
2017-11-28T10:15:31.946Z,6.28
2017-11-28T10:15:57.444Z,6.31
2017-11-28T10:16:22.923Z,6.31
2017-11-28T10:16:48.427Z,6.28
2017-11-28T10:17:13.929Z,6.28
2017-11-28T10:17:39.395Z,6.3
2017-11-28T10:18:04.875Z,6.35
2017-11-28T10:18:30.384Z,6.31
2017-11-28T10:18:55.851Z,6.27
2017-11-28T10:19:21.315Z,6.33
2017-11-28T10:19:46.806Z,6.24
2017-11-28T10:20:12.295Z,6.26
2017-11-28T10:20:37.812Z,6.27
2017-11-28T10:21:03.312Z,6.27
2017-11-28T10:21:28.800Z,6.27
2017-11-28T10:21:54.246Z,6.16
2017-11-28T10:22:19.784Z,6.24
2017-11-28T10:22:45.231Z,6.27
2017-11-28T10:23:10.746Z,6.31
2017-11-28T10:23:36.241Z,6.27
2017-11-28T10:24:01.800Z,6.28
2017-11-28T10:24:27.282Z,6.24
2017-11-28T10:24:52.709Z,6.28
2017-11-28T10:25:18.195Z,6.27
2017-11-28T10:25:43.642Z,6.27
2017-11-28T10:26:09.204Z,6.24
2017-11-28T10:26:34.638Z,6.33
2017-11-28T10:27:00.080Z,6.26
2017-11-28T10:27:25.580Z,6.26
2017-11-28T10:27:51.080Z,6.19
2017-11-28T10:28:16.550Z,6.26
2017-11-28T10:28:42.057Z,6.26
2017-11-28T10:29:07.591Z,6.2
2017-11-28T10:29:33.087Z,6.24
2017-11-28T10:29:58.540Z,6.22
2017-11-28T10:30:24.020Z,6.19
2017-11-28T10:30:49.530Z,6.17
2017-11-28T10:31:15.004Z,6.26
2017-11-28T10:31:40.467Z,6.16
2017-11-28T10:32:05.940Z,6.2
2017-11-28T10:32:31.403Z,6.19
2017-11-28T10:32:56.890Z,6.2
2017-11-28T10:33:22.335Z,6.2
2017-11-28T10:33:47.826Z,6.2
2017-11-28T10:34:13.287Z,6.19
2017-11-28T10:34:38.775Z,6.16
2017-11-28T10:35:04.311Z,6.12
2017-11-28T10:35:29.846Z,6.07
2017-11-28T10:35:55.345Z,6.12
2017-11-28T10:36:20.826Z,6.14
2017-11-28T10:36:46.290Z,6.12
2017-11-28T10:37:11.848Z,6.14
2017-11-28T10:37:37.321Z,6.16
2017-11-28T10:38:02.807Z,6.19
2017-11-28T10:38:28.294Z,6.17
2017-11-28T10:38:53.784Z,6.16
2017-11-28T10:39:19.206Z,6.16
2017-11-28T10:39:44.727Z,6.2
2017-11-28T10:40:10.160Z,6.16
2017-11-28T10:40:35.620Z,6.27
2017-11-28T10:41:01.144Z,6.16
2017-11-28T10:41:26.634Z,6.17
2017-11-28T10:41:52.083Z,6.22
2017-11-28T10:42:17.660Z,6.2
2017-11-28T10:42:43.069Z,6.26
2017-11-28T10:43:08.569Z,6.3
2017-11-28T10:43:34.021Z,6.3
2017-11-28T10:43:59.573Z,6.33
2017-11-28T10:44:24.995Z,6.26
2017-11-28T10:44:50.445Z,6.31
2017-11-28T10:45:15.967Z,6.41
2017-11-28T10:45:41.400Z,6.44
2017-11-28T10:46:06.884Z,6.42